Time;durP1;ratioP1;P1;durP2;ratioP2;P2;SDS_P1;SDS_P2;PMS_P1;PMS_P2;Temp;Humidity;BMP_temperature;BMP_pressure;BME280_temperature;BME280_humidity;BME280_pressure;Samples;Min_cycle;Max_cycle;Signal;HPM_P1;HPM_P2
2023/02/02 00:01:38;;;;;;;17.33;4.87;;;8.30;99.90;;;;;;5033313;28;20432;-57
2023/02/02 00:04:12;;;;;;;18.50;6.77;;;8.30;99.90;;;;;;5033424;28;20471;-57
2023/02/02 00:06:39;;;;;;;22.83;5.13;;;8.30;99.90;;;;;;5033434;28;20444;-56
2023/02/02 00:09:06;;;;;;;17.53;5.00;;;8.30;99.90;;;;;;5033387;28;20434;-57
2023/02/02 00:11:33;;;;;;;19.30;5.27;;;8.30;99.90;;;;;;5033632;28;20447;-57
2023/02/02 00:14:00;;;;;;;19.73;4.70;;;8.30;99.90;;;;;;5033191;28;20484;-57
2023/02/02 00:16:37;;;;;;;18.57;5.17;;;8.20;99.90;;;;;;5033395;28;20435;-56
2023/02/02 00:19:07;;;;;;;23.83;5.90;;;8.30;99.90;;;;;;5033392;28;20436;-57
2023/02/02 00:21:34;;;;;;;23.20;5.83;;;8.30;99.90;;;;;;5033373;28;20436;-57
2023/02/02 00:24:01;;;;;;;21.27;4.90;;;8.30;99.90;;;;;;5033334;28;20473;-56
2023/02/02 00:26:28;;;;;;;16.83;6.13;;;8.40;99.90;;;;;;5033363;28;20447;-57
2023/02/02 00:28:55;;;;;;;17.10;4.53;;;8.40;99.90;;;;;;5033328;28;20441;-56
2023/02/02 00:31:22;;;;;;;17.83;4.30;;;8.30;99.90;;;;;;5033024;28;20444;-57
2023/02/02 00:33:50;;;;;;;13.07;4.97;;;8.30;99.90;;;;;;5032776;28;20467;-57
2023/02/02 00:36:21;;;;;;;14.03;5.20;;;8.30;99.90;;;;;;5033116;28;20454;-56
2023/02/02 00:38:49;;;;;;;20.57;5.13;;;8.30;99.90;;;;;;5036873;28;20490;-56
2023/02/02 00:41:16;;;;;;;18.50;5.10;;;8.30;99.90;;;;;;5037219;28;20441;-57
2023/02/02 00:43:43;;;;;;;26.00;7.33;;;8.20;99.90;;;;;;5037138;28;20466;-57
2023/02/02 00:46:13;;;;;;;19.37;5.40;;;8.30;99.90;;;;;;5036563;28;20457;-57
2023/02/02 00:48:40;;;;;;;17.10;5.13;;;8.30;99.90;;;;;;5037769;28;20424;-57
2023/02/02 00:51:07;;;;;;;12.70;4.20;;;8.30;99.90;;;;;;5036872;28;20450;-57
2023/02/02 00:53:35;;;;;;;14.27;4.30;;;8.30;99.90;;;;;;5036735;28;20491;-57
2023/02/02 00:56:02;;;;;;;15.53;4.10;;;8.40;99.90;;;;;;5037590;28;20432;-57
2023/02/02 00:58:29;;;;;;;14.77;4.33;;;8.40;99.90;;;;;;5036725;28;20485;-57
2023/02/02 01:00:56;;;;;;;19.27;5.30;;;8.40;99.90;;;;;;5036679;28;20467;-57
2023/02/02 01:03:23;;;;;;;17.47;5.33;;;8.30;99.90;;;;;;5036738;28;20468;-57
2023/02/02 01:05:50;;;;;;;24.17;5.40;;;8.30;99.90;;;;;;5036425;28;20490;-57
2023/02/02 01:08:17;;;;;;;14.93;5.00;;;8.40;99.90;;;;;;5036614;28;20553;-57
2023/02/02 01:10:45;;;;;;;16.90;5.00;;;8.30;99.90;;;;;;5036560;28;20462;-57
2023/02/02 01:13:12;;;;;;;27.50;6.40;;;8.30;99.90;;;;;;5036130;28;20478;-57
2023/02/02 01:15:39;;;;;;;19.10;5.27;;;8.30;99.90;;;;;;5036881;28;20475;-57
2023/02/02 01:18:05;;;;;;;15.77;4.57;;;8.30;99.90;;;;;;5035859;28;20855;-57
2023/02/02 01:20:32;;;;;;;14.10;5.27;;;8.30;99.90;;;;;;5036271;28;20450;-57
2023/02/02 01:22:59;;;;;;;15.43;5.20;;;8.30;99.90;;;;;;5035894;28;20475;-57
2023/02/02 01:25:26;;;;;;;23.77;5.50;;;8.20;99.90;;;;;;5035785;28;20452;-57
2023/02/02 01:27:54;;;;;;;13.90;4.60;;;8.20;99.90;;;;;;5036159;28;20445;-57
2023/02/02 01:30:21;;;;;;;21.27;5.10;;;8.20;99.90;;;;;;5035941;28;20461;-57
2023/02/02 01:32:47;;;;;;;16.73;4.70;;;8.20;99.90;;;;;;5035919;28;20459;-57
2023/02/02 01:35:15;;;;;;;18.27;5.30;;;8.10;99.90;;;;;;5035940;28;20435;-57
2023/02/02 01:37:41;;;;;;;17.30;4.40;;;8.10;99.90;;;;;;5035975;28;20492;-57
2023/02/02 01:40:10;;;;;;;24.43;5.33;;;8.10;99.90;;;;;;5035984;28;20440;-57
2023/02/02 01:42:37;;;;;;;16.40;4.93;;;8.10;99.90;;;;;;5035365;28;20807;-57
2023/02/02 01:45:25;;;;;;;22.43;6.17;;;8.10;99.90;;;;;;5035630;28;20455;-57
2023/02/02 01:47:54;;;;;;;21.00;4.90;;;8.20;99.90;;;;;;5035264;28;20430;-57
2023/02/02 01:50:26;;;;;;;14.53;5.40;;;8.10;99.90;;;;;;5034779;28;20453;-57
2023/02/02 01:52:55;;;;;;;9.93;4.07;;;8.10;99.90;;;;;;5035443;28;20472;-57
2023/02/02 01:55:23;;;;;;;14.13;3.83;;;8.20;99.90;;;;;;5035530;28;20455;-57
2023/02/02 01:57:57;;;;;;;22.27;4.97;;;8.20;99.90;;;;;;5035142;28;20843;-57
2023/02/02 02:00:26;;;;;;;12.33;4.33;;;8.10;99.90;;;;;;5035492;28;20458;-57
2023/02/02 02:02:59;;;;;;;17.43;5.40;;;8.10;99.90;;;;;;5035470;28;20483;-57
2023/02/02 02:05:30;;;;;;;17.60;7.07;;;8.10;99.90;;;;;;5035517;28;20442;-57
2023/02/02 02:08:03;;;;;;;15.60;5.00;;;8.20;99.90;;;;;;5035494;28;20439;-57
2023/02/02 02:10:30;;;;;;;27.00;4.87;;;8.10;99.90;;;;;;5035397;28;20447;-57
2023/02/02 02:12:58;;;;;;;16.33;4.70;;;8.10;99.90;;;;;;5035139;28;20484;-57
2023/02/02 02:18:22;;;;;;;17.60;4.10;;;8.20;99.90;;;;;;5015406;28;20987;-57
2023/02/02 02:27:51;;;;;;;15.67;4.50;;;8.20;99.90;;;;;;5015355;28;20905;-57
2023/02/02 02:30:41;;;;;;;18.23;4.53;;;8.20;99.90;;;;;;5014977;28;20446;-57
2023/02/02 02:33:15;;;;;;;20.40;4.37;;;8.20;99.90;;;;;;5015066;28;20469;-57
2023/02/02 02:35:53;;;;;;;16.00;4.37;;;8.30;99.90;;;;;;5015265;28;20438;-57
2023/02/02 02:38:25;;;;;;;13.73;4.50;;;8.20;99.90;;;;;;5015195;28;20493;-56
2023/02/02 02:40:57;;;;;;;19.80;4.80;;;8.30;99.90;;;;;;5015249;28;20431;-57
2023/02/02 02:43:30;;;;;;;20.20;4.90;;;8.30;99.90;;;;;;5015076;28;20484;-56
2023/02/02 02:45:57;;;;;;;23.70;5.70;;;8.30;99.90;;;;;;5014981;28;20445;-57
2023/02/02 02:48:25;;;;;;;20.03;4.83;;;8.30;99.90;;;;;;5015228;28;20527;-56
2023/02/02 02:50:52;;;;;;;13.40;5.27;;;8.30;99.90;;;;;;5014939;28;20462;-57
2023/02/02 02:53:22;;;;;;;8.80;4.20;;;8.30;99.90;;;;;;5015229;28;20481;-56
2023/02/02 02:55:54;;;;;;;16.63;5.17;;;8.30;99.90;;;;;;5015056;28;20458;-57
2023/02/02 02:58:29;;;;;;;17.97;5.30;;;8.30;99.90;;;;;;5015422;28;20482;-56
2023/02/02 03:01:06;;;;;;;23.47;4.77;;;8.30;99.90;;;;;;5014874;28;20458;-57
2023/02/02 03:03:46;;;;;;;19.33;5.70;;;8.20;99.90;;;;;;5015501;28;20473;-57
2023/02/02 03:06:21;;;;;;;17.57;6.07;;;8.20;99.90;;;;;;5015354;28;20442;-57
2023/02/02 03:08:53;;;;;;;16.67;5.03;;;8.20;99.90;;;;;;5016889;28;20429;-57
2023/02/02 03:11:20;;;;;;;14.93;6.20;;;8.20;99.90;;;;;;5016084;28;20423;-56
2023/02/02 03:13:48;;;;;;;20.70;5.40;;;8.20;99.90;;;;;;5015064;28;20474;-57
2023/02/02 03:16:16;;;;;;;15.83;6.13;;;8.20;99.90;;;;;;5014277;28;20975;-57
2023/02/02 03:18:44;;;;;;;15.23;5.43;;;8.20;99.90;;;;;;5014778;28;20489;-57
2023/02/02 03:21:11;;;;;;;23.93;6.10;;;8.30;99.90;;;;;;5015364;28;20459;-57
2023/02/02 03:23:38;;;;;;;19.63;6.20;;;8.20;99.90;;;;;;5014597;28;20473;-57
2023/02/02 03:26:06;;;;;;;21.70;5.17;;;8.20;99.90;;;;;;5014390;28;20943;-57
2023/02/02 03:28:34;;;;;;;16.30;4.70;;;8.20;99.90;;;;;;5014383;28;20460;-57
2023/02/02 03:31:01;;;;;;;14.43;4.63;;;8.30;99.90;;;;;;5013429;28;20443;-56
2023/02/02 03:33:29;;;;;;;17.73;5.60;;;8.30;99.90;;;;;;5014118;28;20545;-57
2023/02/02 03:35:57;;;;;;;15.80;6.47;;;8.30;99.90;;;;;;5014068;28;20496;-57
2023/02/02 03:38:24;;;;;;;18.07;4.47;;;8.30;99.90;;;;;;5013631;28;20501;-57
2023/02/02 03:40:51;;;;;;;14.33;5.77;;;8.30;99.90;;;;;;5013834;28;20457;-57
2023/02/02 03:43:21;;;;;;;18.13;5.80;;;8.30;99.90;;;;;;5013813;28;20486;-57
2023/02/02 03:45:47;;;;;;;10.83;4.10;;;8.30;99.90;;;;;;5013609;28;20509;-56
2023/02/02 03:48:14;;;;;;;17.67;4.23;;;8.30;99.90;;;;;;5014083;28;20462;-57
2023/02/02 03:50:41;;;;;;;16.97;5.67;;;8.30;99.90;;;;;;5013824;28;20454;-56
2023/02/02 03:53:10;;;;;;;20.83;5.30;;;8.30;99.90;;;;;;5013697;28;20476;-57
2023/02/02 03:55:37;;;;;;;14.53;4.77;;;8.30;99.90;;;;;;5014445;28;20449;-56
2023/02/02 03:58:04;;;;;;;19.13;7.13;;;8.30;99.90;;;;;;5013674;28;20499;-56
2023/02/02 04:00:31;;;;;;;14.40;4.33;;;8.30;99.90;;;;;;5013647;28;20963;-57
2023/02/02 04:02:59;;;;;;;15.60;4.67;;;8.30;99.90;;;;;;5013605;28;20469;-57
2023/02/02 04:05:26;;;;;;;26.83;4.70;;;8.30;99.90;;;;;;5013651;28;20433;-56
2023/02/02 04:07:53;;;;;;;20.93;5.27;;;8.30;99.90;;;;;;5013559;28;20495;-56
2023/02/02 04:10:22;;;;;;;13.63;4.83;;;8.30;99.90;;;;;;5013582;28;20450;-57
2023/02/02 04:12:48;;;;;;;18.13;4.80;;;8.30;99.90;;;;;;5015495;28;20770;-57
2023/02/02 04:15:15;;;;;;;14.67;4.80;;;8.40;99.90;;;;;;5017759;28;20449;-57
2023/02/02 04:17:42;;;;;;;10.50;4.90;;;8.40;99.90;;;;;;5017524;28;20462;-57
2023/02/02 04:20:10;;;;;;;13.40;4.30;;;8.40;99.90;;;;;;5017464;28;20484;-57
2023/02/02 04:22:37;;;;;;;12.80;4.30;;;8.30;99.90;;;;;;5015676;28;20458;-57
2023/02/02 04:25:04;;;;;;;12.90;4.30;;;8.30;99.90;;;;;;5017438;28;20443;-57
2023/02/02 04:27:32;;;;;;;18.87;4.60;;;8.30;99.90;;;;;;5017411;28;20452;-57
2023/02/02 04:29:59;;;;;;;13.90;4.20;;;8.30;99.90;;;;;;5017278;28;20484;-57
2023/02/02 04:32:26;;;;;;;20.60;4.63;;;8.40;99.90;;;;;;5016991;28;20461;-57
2023/02/02 04:34:53;;;;;;;13.57;4.20;;;8.30;99.90;;;;;;5016905;28;20977;-57
2023/02/02 04:37:19;;;;;;;12.70;4.77;;;8.30;99.90;;;;;;5017058;28;20449;-57
2023/02/02 04:39:47;;;;;;;12.97;4.90;;;8.20;99.90;;;;;;5017015;28;20567;-57
2023/02/02 04:42:15;;;;;;;23.60;4.70;;;8.20;99.90;;;;;;5017089;28;20535;-57
2023/02/02 04:44:44;;;;;;;23.30;3.97;;;8.20;99.90;;;;;;5016656;28;20849;-57
2023/02/02 04:47:11;;;;;;;14.53;4.43;;;8.20;99.90;;;;;;5017026;28;20464;-57
2023/02/02 04:49:38;;;;;;;16.40;5.00;;;8.20;99.90;;;;;;5016976;28;20449;-56
2023/02/02 04:52:05;;;;;;;22.13;5.90;;;8.20;99.90;;;;;;5016865;28;20968;-57
2023/02/02 04:54:32;;;;;;;24.20;5.77;;;8.20;99.90;;;;;;5016611;28;20548;-57
2023/02/02 04:56:59;;;;;;;18.40;4.83;;;8.20;99.90;;;;;;5016869;28;20457;-56
2023/02/02 04:59:28;;;;;;;24.03;6.20;;;8.20;99.90;;;;;;5016746;28;20494;-56
2023/02/02 05:01:58;;;;;;;20.30;5.43;;;8.20;99.90;;;;;;5016747;28;20529;-56
2023/02/02 05:04:25;;;;;;;16.50;5.20;;;8.20;99.90;;;;;;5016638;28;20483;-56
2023/02/02 05:06:52;;;;;;;13.80;4.70;;;8.20;99.90;;;;;;5017540;28;20460;-56
2023/02/02 05:09:19;;;;;;;17.23;5.47;;;8.20;99.90;;;;;;5016573;28;20783;-56
2023/02/02 05:11:46;;;;;;;29.77;5.00;;;8.20;99.90;;;;;;5016599;28;20457;-56
2023/02/02 05:14:14;;;;;;;25.70;6.30;;;8.20;99.90;;;;;;5016267;28;20496;-56
2023/02/02 05:16:41;;;;;;;23.80;8.17;;;8.20;99.90;;;;;;5016549;28;20478;-57
2023/02/02 05:19:12;;;;;;;24.33;5.50;;;8.20;99.90;;;;;;5016213;28;20474;-57
2023/02/02 05:21:39;;;;;;;17.27;4.73;;;8.30;99.90;;;;;;5016379;28;20442;-57
2023/02/02 05:24:06;;;;;;;17.07;5.70;;;8.20;99.90;;;;;;5015820;28;20832;-57
2023/02/02 05:26:33;;;;;;;17.30;5.67;;;8.20;99.90;;;;;;5016597;28;20459;-57
2023/02/02 05:29:01;;;;;;;19.20;6.40;;;8.20;99.90;;;;;;5016245;28;20432;-57
2023/02/02 05:31:30;;;;;;;19.90;6.73;;;8.20;99.90;;;;;;5016128;28;20453;-57
2023/02/02 05:33:56;;;;;;;23.40;6.50;;;8.20;99.90;;;;;;5016367;28;20514;-57
2023/02/02 05:36:25;;;;;;;16.83;6.53;;;8.20;99.90;;;;;;5016346;28;20443;-56
2023/02/02 05:38:52;;;;;;;21.97;5.70;;;8.20;99.90;;;;;;5015632;28;21012;-56
2023/02/02 05:41:19;;;;;;;19.37;6.60;;;8.20;99.90;;;;;;5016692;28;20459;-56
2023/02/02 05:43:46;;;;;;;22.27;6.23;;;8.10;99.90;;;;;;5017151;28;20480;-55
2023/02/02 05:46:13;;;;;;;29.60;7.50;;;8.10;99.90;;;;;;5015976;28;20461;-55
2023/02/02 05:48:40;;;;;;;16.63;7.40;;;8.10;99.90;;;;;;5016043;28;20434;-55
2023/02/02 05:51:15;;;;;;;24.33;6.83;;;8.10;99.90;;;;;;5015883;28;20457;-56
2023/02/02 05:53:44;;;;;;;20.67;8.40;;;8.00;99.90;;;;;;5015335;28;20985;-55
2023/02/02 05:56:11;;;;;;;12.53;5.50;;;8.00;99.90;;;;;;5015864;28;20505;-55
2023/02/02 05:58:38;;;;;;;27.07;7.60;;;8.00;99.90;;;;;;5016330;28;20472;-55
2023/02/02 06:01:05;;;;;;;18.70;6.00;;;8.00;99.90;;;;;;5015450;28;20963;-55
2023/02/02 06:03:32;;;;;;;26.43;7.57;;;8.00;99.90;;;;;;5015513;28;20474;-55
2023/02/02 06:05:59;;;;;;;26.40;6.90;;;7.90;99.90;;;;;;5015611;28;20434;-55
2023/02/02 06:08:25;;;;;;;20.57;6.57;;;7.90;99.90;;;;;;5015533;28;20461;-55
2023/02/02 06:10:54;;;;;;;19.73;7.17;;;7.90;99.90;;;;;;5015612;28;20443;-55
2023/02/02 06:13:20;;;;;;;27.20;8.43;;;7.80;99.90;;;;;;5015681;28;20472;-55
2023/02/02 06:15:47;;;;;;;17.30;8.30;;;7.80;99.90;;;;;;5015440;28;20445;-55
2023/02/02 06:18:14;;;;;;;21.53;8.03;;;7.80;99.90;;;;;;5015363;28;20441;-55
2023/02/02 06:20:41;;;;;;;21.57;7.47;;;7.80;99.90;;;;;;5015236;28;20494;-55
2023/02/02 06:23:08;;;;;;;16.83;7.27;;;7.80;99.90;;;;;;5015132;28;20490;-55
2023/02/02 06:25:34;;;;;;;22.97;8.20;;;7.80;99.90;;;;;;5015099;28;20462;-55
2023/02/02 06:28:03;;;;;;;19.03;6.40;;;7.80;99.90;;;;;;5015183;28;20454;-55
2023/02/02 06:30:29;;;;;;;21.67;7.67;;;7.90;99.90;;;;;;5015171;28;20429;-55
2023/02/02 06:32:59;;;;;;;33.37;7.10;;;7.80;99.90;;;;;;5014689;28;20986;-55
2023/02/02 06:35:27;;;;;;;19.80;7.73;;;7.80;99.90;;;;;;5014608;28;20934;-55
2023/02/02 06:37:53;;;;;;;21.70;8.40;;;7.80;99.90;;;;;;5014716;28;20872;-54
2023/02/02 06:40:20;;;;;;;22.70;6.90;;;7.80;99.90;;;;;;5015297;28;20479;-54
2023/02/02 06:42:47;;;;;;;25.20;7.90;;;7.90;99.90;;;;;;5014769;28;20437;-54
2023/02/02 06:45:15;;;;;;;22.23;7.17;;;7.90;99.90;;;;;;5015274;28;20424;-54
2023/02/02 06:47:42;;;;;;;25.47;8.13;;;7.90;99.90;;;;;;5014904;28;20432;-54
2023/02/02 06:50:10;;;;;;;21.43;7.63;;;7.90;99.90;;;;;;5015082;28;20431;-55
2023/02/02 06:52:37;;;;;;;18.37;6.50;;;7.90;99.90;;;;;;5014329;28;20899;-54
2023/02/02 06:55:04;;;;;;;21.37;6.83;;;7.90;99.90;;;;;;5014946;28;20440;-55
2023/02/02 06:57:31;;;;;;;16.00;7.20;;;7.90;99.90;;;;;;5014420;28;20913;-55
2023/02/02 06:59:58;;;;;;;19.33;6.40;;;7.90;99.90;;;;;;5014548;28;20485;-55
2023/02/02 07:02:26;;;;;;;23.03;7.17;;;7.90;99.90;;;;;;5014542;28;20432;-55
2023/02/02 07:04:53;;;;;;;24.17;7.53;;;7.90;99.90;;;;;;5014499;28;20469;-55
2023/02/02 07:07:19;;;;;;;23.63;7.00;;;7.90;99.90;;;;;;5014550;28;20443;-55
2023/02/02 07:09:46;;;;;;;24.03;9.00;;;7.90;99.90;;;;;;5014499;28;20792;-55
2023/02/02 07:12:13;;;;;;;15.43;7.67;;;7.90;99.90;;;;;;5014508;28;20429;-55
2023/02/02 07:14:40;;;;;;;24.93;8.10;;;7.90;99.90;;;;;;5014244;28;20468;-56
2023/02/02 07:17:06;;;;;;;24.50;9.33;;;7.90;99.90;;;;;;5014262;28;20442;-55
2023/02/02 07:19:34;;;;;;;32.43;8.70;;;7.90;99.90;;;;;;5014044;28;20473;-55
2023/02/02 07:22:01;;;;;;;27.67;7.33;;;7.90;99.90;;;;;;5013849;28;20452;-55
2023/02/02 07:24:28;;;;;;;19.33;7.57;;;8.00;99.90;;;;;;5014173;28;20468;-55
2023/02/02 07:26:56;;;;;;;15.73;7.37;;;7.90;99.90;;;;;;5014141;28;20449;-55
2023/02/02 07:29:23;;;;;;;21.70;7.97;;;7.90;99.90;;;;;;5014137;28;20445;-55
2023/02/02 07:31:51;;;;;;;17.30;7.63;;;7.90;99.90;;;;;;5014000;28;20433;-56
2023/02/02 07:34:17;;;;;;;22.80;9.07;;;7.90;99.90;;;;;;5013740;28;20477;-55
2023/02/02 07:36:46;;;;;;;28.47;8.50;;;7.90;99.90;;;;;;5013841;28;20946;-55
2023/02/02 07:39:13;;;;;;;16.73;8.50;;;7.90;99.90;;;;;;5013598;28;20500;-55
2023/02/02 07:41:39;;;;;;;21.10;8.67;;;7.90;99.90;;;;;;5013736;28;20913;-55
2023/02/02 07:44:07;;;;;;;28.37;9.50;;;7.90;99.90;;;;;;5013443;28;20910;-55
2023/02/02 07:46:33;;;;;;;17.63;7.77;;;7.90;99.90;;;;;;5012778;28;20921;-55
2023/02/02 07:49:00;;;;;;;21.67;9.50;;;7.90;99.90;;;;;;5013837;28;20434;-55
2023/02/02 07:51:27;;;;;;;22.67;9.90;;;8.00;99.90;;;;;;5013600;28;20917;-55
2023/02/02 07:53:57;;;;;;;20.20;9.70;;;8.00;99.90;;;;;;5013671;28;20470;-55
2023/02/02 07:56:26;;;;;;;21.00;10.03;;;8.00;99.90;;;;;;5013441;28;20442;-55
2023/02/02 07:58:55;;;;;;;22.77;8.70;;;8.00;99.90;;;;;;5013671;28;20509;-56
2023/02/02 08:01:22;;;;;;;19.20;9.67;;;8.00;99.90;;;;;;5013603;28;20449;-55
2023/02/02 08:03:49;;;;;;;20.43;8.50;;;8.00;99.90;;;;;;5013551;28;20474;-55
2023/02/02 08:06:18;;;;;;;25.93;9.97;;;8.00;99.90;;;;;;5013298;28;20905;-55
2023/02/02 08:08:46;;;;;;;19.50;9.90;;;8.00;99.90;;;;;;5014102;28;20449;-55
2023/02/02 08:11:16;;;;;;;19.93;10.10;;;8.00;99.90;;;;;;5013479;28;20456;-55
2023/02/02 08:13:43;;;;;;;22.50;10.10;;;8.00;99.90;;;;;;5013321;28;20484;-55
2023/02/02 08:16:12;;;;;;;15.70;9.13;;;8.00;99.90;;;;;;5013211;28;20824;-55
2023/02/02 08:18:39;;;;;;;19.73;8.30;;;8.00;99.90;;;;;;5013559;28;20441;-55
2023/02/02 08:21:08;;;;;;;28.23;9.53;;;8.00;99.90;;;;;;5013291;28;20473;-55
2023/02/02 08:23:35;;;;;;;23.80;9.60;;;8.10;99.90;;;;;;5013134;28;21049;-56
2023/02/02 08:26:10;;;;;;;20.70;9.30;;;8.10;99.90;;;;;;5013470;28;20454;-55
2023/02/02 08:28:43;;;;;;;17.70;8.63;;;8.10;99.90;;;;;;5013263;28;20505;-55
2023/02/02 08:31:12;;;;;;;18.13;9.53;;;8.10;99.90;;;;;;5031172;28;20449;-55
2023/02/02 08:33:39;;;;;;;22.63;9.37;;;8.10;99.90;;;;;;5032662;28;20992;-55
2023/02/02 08:36:11;;;;;;;16.10;9.30;;;8.20;99.90;;;;;;5033142;28;20441;-55
2023/02/02 08:38:38;;;;;;;26.57;10.53;;;8.20;99.90;;;;;;5032742;28;20505;-55
2023/02/02 08:41:06;;;;;;;27.10;10.50;;;8.20;99.90;;;;;;5032994;28;20492;-56
2023/02/02 08:43:32;;;;;;;22.67;9.37;;;8.30;99.90;;;;;;5033289;28;20472;-55
2023/02/02 08:46:01;;;;;;;17.80;8.50;;;8.30;99.90;;;;;;5032922;28;20453;-55
2023/02/02 08:48:27;;;;;;;19.50;8.93;;;8.30;99.90;;;;;;5033041;28;20454;-55
2023/02/02 08:50:55;;;;;;;17.13;8.43;;;8.30;99.90;;;;;;5033008;28;20437;-55
2023/02/02 08:53:23;;;;;;;22.03;9.03;;;8.40;99.90;;;;;;5032847;28;20477;-55
2023/02/02 08:55:57;;;;;;;21.30;8.77;;;8.40;99.90;;;;;;5032939;28;20449;-55
2023/02/02 08:58:24;;;;;;;23.37;9.00;;;8.40;99.90;;;;;;5034386;28;20466;-56
2023/02/02 09:00:51;;;;;;;17.17;8.10;;;8.40;99.90;;;;;;5036654;28;20480;-55
2023/02/02 09:03:20;;;;;;;21.90;8.10;;;8.40;99.90;;;;;;5036589;28;20466;-54
2023/02/02 09:05:47;;;;;;;16.53;7.93;;;8.40;99.90;;;;;;5036606;28;20460;-54
2023/02/02 09:08:14;;;;;;;19.20;7.40;;;8.40;99.90;;;;;;5036613;28;20438;-54
2023/02/02 09:10:41;;;;;;;19.37;9.20;;;8.40;99.90;;;;;;5036545;28;20430;-54
2023/02/02 09:13:07;;;;;;;18.60;8.27;;;8.40;99.90;;;;;;5036229;28;20817;-54
2023/02/02 09:15:34;;;;;;;15.90;9.53;;;8.40;99.90;;;;;;5036357;28;20821;-54
2023/02/02 09:18:01;;;;;;;20.73;8.70;;;8.40;99.90;;;;;;5036729;28;20463;-54
2023/02/02 09:20:30;;;;;;;22.97;9.20;;;8.30;99.90;;;;;;5035356;28;20470;-55
2023/02/02 09:22:57;;;;;;;25.70;9.40;;;8.30;99.90;;;;;;5036217;28;20572;-54
2023/02/02 09:25:26;;;;;;;25.97;10.50;;;8.30;99.90;;;;;;5035249;28;20808;-54
2023/02/02 09:27:53;;;;;;;19.57;9.80;;;8.30;99.90;;;;;;5036310;28;20441;-54
2023/02/02 09:30:20;;;;;;;21.00;10.03;;;8.30;99.90;;;;;;5036324;28;20430;-54
2023/02/02 09:32:49;;;;;;;17.03;10.10;;;8.30;99.90;;;;;;5035426;28;20449;-54
2023/02/02 09:35:16;;;;;;;22.10;10.17;;;8.30;99.90;;;;;;5036100;28;20455;-54
2023/02/02 09:37:47;;;;;;;18.50;10.97;;;8.30;99.90;;;;;;5034878;28;20953;-54
2023/02/02 09:40:17;;;;;;;22.03;10.77;;;8.30;99.90;;;;;;5036593;28;20490;-56
2023/02/02 09:43:06;;;;;;;26.20;11.73;;;8.30;99.90;;;;;;5036408;28;20889;-55
2023/02/02 09:45:42;;;;;;;29.27;11.67;;;8.30;99.90;;;;;;5037438;28;20439;-54
2023/02/02 09:48:25;;;;;;;18.77;11.20;;;8.20;99.90;;;;;;5037206;28;20440;-54
2023/02/02 09:50:57;;;;;;;21.67;11.50;;;8.20;99.90;;;;;;5037188;28;20944;-54
2023/02/02 09:53:38;;;;;;;23.13;11.50;;;8.30;99.90;;;;;;5037507;28;20467;-54
2023/02/02 09:56:10;;;;;;;28.47;12.53;;;8.30;99.90;;;;;;5034997;28;20430;-54
2023/02/02 09:58:44;;;;;;;30.90;10.70;;;8.30;99.90;;;;;;5036063;28;20449;-54
2023/02/02 10:01:15;;;;;;;27.33;12.63;;;8.30;99.90;;;;;;5036074;28;20471;-54
2023/02/02 10:03:49;;;;;;;24.03;11.20;;;8.40;99.90;;;;;;5035708;28;20905;-54
2023/02/02 10:06:34;;;;;;;24.83;12.10;;;8.30;99.90;;;;;;5035951;28;20827;-55
2023/02/02 10:09:18;;;;;;;25.60;12.27;;;8.30;99.90;;;;;;5034906;28;20491;-55
2023/02/02 10:11:51;;;;;;;22.20;10.73;;;8.40;99.90;;;;;;5035004;28;20815;-55
2023/02/02 10:14:23;;;;;;;23.77;11.57;;;8.40;99.90;;;;;;5035349;28;20495;-55
2023/02/02 10:16:54;;;;;;;19.77;10.80;;;8.40;99.90;;;;;;5035499;28;20433;-55
2023/02/02 10:19:26;;;;;;;17.70;11.30;;;8.40;99.90;;;;;;5035286;28;20529;-55
2023/02/02 10:22:05;;;;;;;20.60;12.47;;;8.40;99.90;;;;;;5035251;28;20860;-55
2023/02/02 10:24:35;;;;;;;22.43;10.60;;;8.40;99.90;;;;;;5035191;28;20472;-55
2023/02/02 10:27:05;;;;;;;19.80;11.03;;;8.50;99.90;;;;;;5035189;28;20471;-55
2023/02/02 10:29:38;;;;;;;23.60;12.50;;;8.40;99.90;;;;;;5035055;28;20493;-55
2023/02/02 10:32:21;;;;;;;23.10;11.03;;;8.50;99.90;;;;;;5034916;28;20441;-55
2023/02/02 10:35:01;;;;;;;22.77;10.20;;;8.50;99.90;;;;;;5034575;28;20526;-55
2023/02/02 10:37:33;;;;;;;26.03;9.60;;;8.50;99.90;;;;;;5034795;28;20465;-55
2023/02/02 10:40:19;;;;;;;18.37;8.77;;;8.50;99.90;;;;;;5034864;28;20453;-55
2023/02/02 10:45:45;;;;;;;19.27;8.60;;;8.60;99.90;;;;;;5035005;28;20544;-55
2023/02/02 10:48:15;;;;;;;14.10;8.57;;;8.60;99.90;;;;;;5034982;28;20443;-55
2023/02/02 10:50:45;;;;;;;19.13;8.87;;;8.60;99.90;;;;;;5034811;28;20781;-55
2023/02/02 10:53:14;;;;;;;16.47;9.60;;;8.60;99.90;;;;;;5034718;28;20828;-55
2023/02/02 10:55:49;;;;;;;17.50;9.03;;;8.60;99.90;;;;;;5034549;28;20445;-55
2023/02/02 10:58:23;;;;;;;21.90;9.47;;;8.60;99.90;;;;;;5035234;28;20432;-55
2023/02/02 11:00:53;;;;;;;20.27;9.83;;;8.50;99.90;;;;;;5034552;28;20471;-55
2023/02/02 11:03:23;;;;;;;17.47;9.60;;;8.60;99.90;;;;;;5035500;28;20476;-55
2023/02/02 11:08:38;;;;;;;17.67;8.87;;;8.60;99.90;;;;;;5034569;28;20411;-55
2023/02/02 11:11:22;;;;;;;15.00;8.80;;;8.70;99.90;;;;;;5034292;28;20451;-57
2023/02/02 11:13:53;;;;;;;16.97;8.50;;;8.70;99.90;;;;;;5028865;28;20490;-55
2023/02/02 11:16:26;;;;;;;16.80;8.77;;;8.70;99.90;;;;;;5014755;28;20420;-56
2023/02/02 11:18:53;;;;;;;18.23;8.47;;;8.80;99.90;;;;;;5013745;28;20453;-55
2023/02/02 11:21:23;;;;;;;18.47;7.90;;;8.80;99.90;;;;;;5014126;28;20473;-55
2023/02/02 11:24:00;;;;;;;13.73;7.40;;;8.80;99.90;;;;;;5014708;28;20486;-57
2023/02/02 11:26:42;;;;;;;18.73;8.50;;;8.90;99.90;;;;;;5014201;28;20453;-55
2023/02/02 11:29:15;;;;;;;26.90;8.40;;;8.80;99.90;;;;;;5014727;28;20448;-56
2023/02/02 11:31:42;;;;;;;14.87;8.33;;;8.90;99.90;;;;;;5014769;28;20436;-55
2023/02/02 11:34:18;;;;;;;22.33;8.30;;;9.00;99.90;;;;;;5013919;28;20481;-55
2023/02/02 11:37:03;;;;;;;14.40;7.53;;;8.90;99.90;;;;;;5013377;28;20438;-55
2023/02/02 11:39:30;;;;;;;27.43;8.20;;;9.00;99.90;;;;;;5013893;28;20473;-56
2023/02/02 11:42:06;;;;;;;16.13;7.17;;;9.00;99.90;;;;;;5013821;28;20471;-55
2023/02/02 11:44:35;;;;;;;14.30;7.20;;;9.10;99.90;;;;;;5013750;28;20481;-56
2023/02/02 11:47:04;;;;;;;13.40;7.47;;;9.20;99.90;;;;;;5013959;28;20494;-55
2023/02/02 11:49:35;;;;;;;22.87;7.90;;;9.20;99.90;;;;;;5013933;28;20521;-55
2023/02/02 11:52:05;;;;;;;16.57;8.50;;;9.30;99.90;;;;;;5013738;28;20438;-55
2023/02/02 11:54:34;;;;;;;16.90;8.07;;;9.40;99.90;;;;;;5013845;28;20482;-56
2023/02/02 11:57:07;;;;;;;9.57;7.80;;;9.40;99.90;;;;;;5013660;28;20451;-55
2023/02/02 11:59:36;;;;;;;15.63;7.63;;;9.50;99.90;;;;;;5013468;28;20440;-56
2023/02/02 12:02:28;;;;;;;16.90;7.63;;;9.50;99.90;;;;;;5013415;28;20486;-56
2023/02/02 12:05:12;;;;;;;17.67;7.80;;;9.60;99.90;;;;;;5013598;28;20481;-55
2023/02/02 12:07:40;;;;;;;18.27;8.00;;;9.70;99.90;;;;;;5014107;28;20497;-55
2023/02/02 12:10:16;;;;;;;24.80;8.07;;;9.70;99.90;;;;;;5013509;28;20506;-55
2023/02/02 12:12:53;;;;;;;15.73;8.40;;;9.70;99.90;;;;;;5013578;28;20449;-55
2023/02/02 12:15:31;;;;;;;14.07;7.87;;;9.70;99.90;;;;;;5013319;28;20796;-55
2023/02/02 12:18:10;;;;;;;19.43;8.67;;;9.70;99.90;;;;;;5014133;28;20438;-56
2023/02/02 12:20:45;;;;;;;12.60;8.40;;;9.80;99.90;;;;;;5013556;28;20501;-55
2023/02/02 12:23:44;;;;;;;20.33;9.90;;;9.80;99.90;;;;;;5013574;28;20474;-55
2023/02/02 12:26:21;;;;;;;14.80;9.10;;;9.80;99.90;;;;;;5006720;28;20466;-55
2023/02/02 12:29:21;;;;;;;19.07;8.70;;;9.80;99.90;;;;;;5013456;28;20440;-56
2023/02/02 12:32:06;;;;;;;19.37;8.50;;;9.80;99.90;;;;;;4986807;28;20811;-55
2023/02/02 12:34:43;;;;;;;13.10;8.23;;;9.80;99.90;;;;;;5016621;28;20474;-55
2023/02/02 12:37:23;;;;;;;13.30;9.60;;;9.70;99.90;;;;;;5016909;28;20442;-56
2023/02/02 12:40:01;;;;;;;14.07;9.10;;;9.70;99.90;;;;;;5017188;28;20430;-55
2023/02/02 12:42:51;;;;;;;18.03;8.50;;;9.70;99.90;;;;;;5017197;28;20478;-55
2023/02/02 12:45:46;;;;;;;11.77;8.83;;;9.70;99.90;;;;;;5017205;28;20443;-55
2023/02/02 12:48:25;;;;;;;16.50;8.43;;;9.70;99.90;;;;;;5016956;28;20481;-55
2023/02/02 12:51:04;;;;;;;15.87;8.00;;;9.70;99.90;;;;;;5017111;28;20419;-55
2023/02/02 12:53:46;;;;;;;15.93;9.60;;;9.70;99.90;;;;;;5016909;28;20477;-55
2023/02/02 12:56:22;;;;;;;13.77;8.77;;;9.80;99.90;;;;;;5017033;28;20536;-55
2023/02/02 12:59:02;;;;;;;12.97;7.97;;;9.80;99.90;;;;;;5016967;28;20434;-55
2023/02/02 13:01:50;;;;;;;10.93;7.90;;;9.80;99.90;;;;;;5016651;28;20483;-55
2023/02/02 13:04:29;;;;;;;14.33;8.50;;;9.80;99.90;;;;;;5016713;28;20485;-55
2023/02/02 13:07:17;;;;;;;14.30;8.20;;;9.80;99.90;;;;;;5016425;28;20812;-55
2023/02/02 13:09:50;;;;;;;13.37;8.90;;;9.80;99.90;;;;;;5016344;28;20930;-55
2023/02/02 13:12:22;;;;;;;17.60;7.77;;;9.80;99.90;;;;;;5016705;28;20446;-55
2023/02/02 13:14:54;;;;;;;15.87;10.20;;;9.80;99.90;;;;;;5016600;28;20472;-57
2023/02/02 13:17:29;;;;;;;10.80;8.03;;;9.90;99.90;;;;;;5016656;28;20510;-55